Time;durP1;ratioP1;P1;durP2;ratioP2;P2;SDS_P1;SDS_P2;PMS_P1;PMS_P2;Temp;Humidity;BMP_temperature;BMP_pressure;BME280_temperature;BME280_humidity;BME280_pressure;Samples;Min_cycle;Max_cycle;Signal;HPM_P1;HPM_P2
2023/06/17 00:01:40;;;;;;;8.63;8.23;;;;;;;18.69;99.53;92190.66;5069676;28;20190;-78
2023/06/17 00:04:05;;;;;;;9.00;8.60;;;;;;;17.97;99.76;92161.03;5068606;28;20205;-78
2023/06/17 00:06:31;;;;;;;9.63;9.03;;;;;;;18.38;100.00;92184.50;5068669;28;20241;-82
2023/06/17 00:08:57;;;;;;;8.80;8.40;;;;;;;17.87;100.00;92177.34;5064600;28;20268;-78
2023/06/17 00:11:23;;;;;;;8.83;8.37;;;;;;;18.25;100.00;92167.13;5072105;28;20228;-78
2023/06/17 00:13:48;;;;;;;8.57;8.27;;;;;;;18.28;98.75;92147.94;5069786;28;20189;-78
2023/06/17 00:16:17;;;;;;;8.93;8.53;;;;;;;18.25;99.98;92161.84;5069000;28;20236;-78
2023/06/17 00:18:42;;;;;;;8.63;8.27;;;;;;;18.34;98.80;92146.59;5069057;28;20190;-78
2023/06/17 00:21:08;;;;;;;8.30;8.00;;;;;;;18.44;99.46;92168.09;5069075;28;20234;-78
2023/06/17 00:23:34;;;;;;;8.77;8.30;;;;;;;18.39;98.73;92159.63;5056931;28;20181;-78
2023/06/17 00:26:00;;;;;;;9.90;9.40;;;;;;;18.33;97.81;92139.78;5067066;28;20221;-78
2023/06/17 00:28:26;;;;;;;8.47;8.07;;;;;;;18.43;98.55;92155.19;5069396;28;20201;-78
2023/06/17 00:30:51;;;;;;;8.97;8.63;;;;;;;18.33;98.10;92166.22;5067849;28;20328;-79
2023/06/17 00:33:17;;;;;;;9.07;8.67;;;;;;;18.28;98.81;92161.16;5069315;28;20209;-79
2023/06/17 00:35:42;;;;;;;7.83;7.37;;;;;;;18.37;98.30;92170.50;5068865;28;20284;-79
2023/06/17 00:38:08;;;;;;;9.37;8.97;;;;;;;18.10;99.73;92167.84;5069336;28;20249;-78
2023/06/17 00:40:33;;;;;;;9.30;8.57;;;;;;;18.04;98.93;92140.13;5069236;28;20229;-78
2023/06/17 00:42:59;;;;;;;9.20;8.47;;;;;;;18.22;99.41;92170.44;5069451;28;20253;-78
2023/06/17 00:45:24;;;;;;;8.70;8.37;;;;;;;18.31;99.69;92157.84;5075562;28;20240;-78
2023/06/17 00:47:50;;;;;;;8.10;7.80;;;;;;;18.32;99.55;92164.69;5075369;28;20188;-78
2023/06/17 00:50:16;;;;;;;7.97;7.67;;;;;;;18.19;98.91;92160.53;5078793;28;20249;-79
2023/06/17 00:52:44;;;;;;;8.30;8.00;;;;;;;18.09;99.24;92166.28;5073484;28;20241;-78
2023/06/17 00:55:10;;;;;;;8.30;8.00;;;;;;;17.87;100.00;92161.50;5105057;28;20225;-79
2023/06/17 00:57:37;;;;;;;9.00;8.60;;;;;;;17.75;100.00;92153.59;5072405;28;20201;-78
2023/06/17 01:00:06;;;;;;;8.60;8.20;;;;;;;17.83;100.00;92142.13;5072578;28;20284;-78
2023/06/17 01:02:31;;;;;;;8.50;8.10;;;;;;;17.74;99.86;92150.19;5073319;28;20186;-78
2023/06/17 01:05:01;;;;;;;9.50;9.10;;;;;;;17.76;100.00;92136.66;5072630;28;20233;-80
2023/06/17 01:07:52;;;;;;;9.20;8.80;;;;;;;17.86;100.00;92138.81;5073472;28;20185;-78
2023/06/17 01:10:48;;;;;;;9.60;9.00;;;;;;;17.80;100.00;92159.44;5072426;28;20229;-79
2023/06/17 01:13:16;;;;;;;9.10;8.70;;;;;;;17.79;99.49;92154.47;5104677;28;20200;-78
2023/06/17 01:15:42;;;;;;;8.70;8.30;;;;;;;17.81;99.51;92139.06;5072439;28;20220;-78
2023/06/17 01:18:08;;;;;;;9.90;9.40;;;;;;;17.61;100.00;92146.03;5072378;28;20215;-78
2023/06/17 01:20:35;;;;;;;8.97;8.57;;;;;;;17.77;100.00;92149.53;5072585;28;20232;-79
2023/06/17 01:23:01;;;;;;;10.10;9.60;;;;;;;17.60;100.00;92150.53;5069966;28;20190;-78
2023/06/17 01:25:31;;;;;;;10.00;9.43;;;;;;;17.69;100.00;92147.78;5072167;28;20236;-79
2023/06/17 01:28:01;;;;;;;9.73;9.33;;;;;;;17.75;100.00;92140.38;5072211;28;20186;-79
2023/06/17 01:30:30;;;;;;;9.40;9.00;;;;;;;17.92;100.00;92145.41;5071584;28;20271;-78
2023/06/17 01:32:58;;;;;;;9.63;9.03;;;;;;;17.73;100.00;92142.63;5072528;28;20192;-78
2023/06/17 01:35:25;;;;;;;10.00;9.40;;;;;;;17.74;100.00;92144.13;5071773;28;20209;-78
2023/06/17 01:37:58;;;;;;;9.53;9.00;;;;;;;17.47;100.00;92122.63;5072908;28;20249;-78
2023/06/17 01:40:25;;;;;;;9.30;8.80;;;;;;;17.33;100.00;92124.81;5072498;28;20209;-78
2023/06/17 01:42:53;;;;;;;9.47;9.07;;;;;;;17.38;100.00;92132.50;5071528;28;20189;-79
2023/06/17 01:45:19;;;;;;;9.10;8.70;;;;;;;17.77;100.00;92144.25;5075486;28;20221;-78
2023/06/17 01:47:45;;;;;;;9.60;9.20;;;;;;;17.96;100.00;92151.59;5074989;28;20182;-79
2023/06/17 01:50:11;;;;;;;10.27;9.67;;;;;;;17.55;100.00;92131.53;5071332;28;20272;-79
2023/06/17 01:52:36;;;;;;;8.93;8.53;;;;;;;17.87;100.00;92135.84;5072770;28;20189;-78
2023/06/17 01:55:02;;;;;;;10.47;9.97;;;;;;;17.81;100.00;92139.06;5071510;28;20225;-79
2023/06/17 01:57:28;;;;;;;9.17;8.80;;;;;;;17.85;100.00;92146.00;5072025;28;20224;-79
2023/06/17 01:59:55;;;;;;;9.13;8.73;;;;;;;17.63;99.81;92099.69;5091641;28;20234;-78
2023/06/17 02:02:21;;;;;;;9.47;8.97;;;;;;;17.85;100.00;92145.22;5072892;28;20197;-79
2023/06/17 02:04:47;;;;;;;9.30;8.80;;;;;;;17.79;100.00;92133.34;5077816;28;20223;-79
2023/06/17 02:07:13;;;;;;;9.20;8.80;;;;;;;17.58;100.00;92120.28;5072152;28;20172;-79
2023/06/17 02:09:39;;;;;;;9.67;9.27;;;;;;;17.85;100.00;92134.66;5071587;28;20241;-79
2023/06/17 02:12:07;;;;;;;9.63;9.13;;;;;;;17.90;100.00;92131.78;5103990;28;20217;-79
2023/06/17 02:14:33;;;;;;;8.63;8.30;;;;;;;17.89;100.00;92130.22;5071006;28;20289;-75
2023/06/17 02:16:58;;;;;;;9.23;8.63;;;;;;;17.85;100.00;92140.72;5091811;28;20173;-77
2023/06/17 02:19:24;;;;;;;9.40;9.00;;;;;;;17.72;100.00;92119.94;5071199;28;20213;-77
2023/06/17 02:21:49;;;;;;;10.20;9.70;;;;;;;17.44;100.00;92136.50;5069074;28;20190;-77
2023/06/17 02:24:14;;;;;;;9.80;9.40;;;;;;;17.66;100.00;92121.28;5064566;28;20201;-77
2023/06/17 02:26:41;;;;;;;10.00;9.50;;;;;;;17.45;100.00;92124.81;5071450;28;20197;-77
2023/06/17 02:29:06;;;;;;;9.30;8.70;;;;;;;17.24;100.00;92126.78;5071091;28;20170;-77
2023/06/17 02:31:32;;;;;;;9.70;9.30;;;;;;;17.26;100.00;92137.75;5070938;28;20216;-73
2023/06/17 02:33:58;;;;;;;10.07;9.47;;;;;;;17.53;100.00;92126.56;5071363;28;20205;-73
2023/06/17 02:36:24;;;;;;;9.10;8.70;;;;;;;17.45;100.00;92122.19;5087273;28;20225;-73
2023/06/17 02:38:52;;;;;;;10.30;9.80;;;;;;;17.00;100.00;92132.06;5087346;28;20186;-73
2023/06/17 02:41:18;;;;;;;10.07;9.63;;;;;;;17.40;100.00;92140.84;5070623;28;20227;-73
2023/06/17 02:43:43;;;;;;;9.83;9.33;;;;;;;17.17;100.00;92115.22;5071028;28;20201;-74
2023/06/17 02:46:08;;;;;;;9.90;9.30;;;;;;;17.52;100.00;92137.47;5070453;28;20225;-73
2023/06/17 02:48:35;;;;;;;9.53;9.00;;;;;;;17.56;100.00;92141.75;5070649;28;20240;-73
2023/06/17 02:51:01;;;;;;;8.67;8.27;;;;;;;17.35;100.00;92141.06;5069849;28;20228;-73
2023/06/17 02:53:26;;;;;;;9.80;9.20;;;;;;;17.23;100.00;92125.25;5053545;28;20185;-73
2023/06/17 02:55:53;;;;;;;9.77;9.27;;;;;;;17.03;100.00;92135.88;5070053;28;20290;-73
2023/06/17 02:58:19;;;;;;;9.70;9.30;;;;;;;17.40;100.00;92151.41;5070925;28;20225;-73
2023/06/17 03:00:46;;;;;;;9.33;8.93;;;;;;;17.36;100.00;92149.75;5070084;28;20221;-74
2023/06/17 03:03:11;;;;;;;9.73;9.23;;;;;;;17.02;100.00;92150.97;5078438;28;20185;-73
2023/06/17 03:05:41;;;;;;;9.10;8.70;;;;;;;17.24;100.00;92137.34;5069550;28;20268;-73
2023/06/17 03:08:07;;;;;;;8.93;8.47;;;;;;;17.33;100.00;92148.56;5070866;28;20188;-73
2023/06/17 03:10:33;;;;;;;8.60;8.13;;;;;;;17.48;100.00;92147.13;5066908;28;20233;-74
2023/06/17 03:13:00;;;;;;;9.70;9.30;;;;;;;17.03;100.00;92141.94;5069532;28;20189;-73
2023/06/17 03:15:26;;;;;;;9.60;8.83;;;;;;;17.15;100.00;92123.47;5069863;28;20232;-74
2023/06/17 03:17:52;;;;;;;9.37;8.97;;;;;;;17.37;100.00;92162.63;5070417;28;20188;-73
2023/06/17 03:20:18;;;;;;;8.97;8.47;;;;;;;17.52;100.00;92162.00;5069793;28;20224;-74
2023/06/17 03:22:44;;;;;;;9.17;8.47;;;;;;;17.17;100.00;92163.50;5060571;28;20204;-73
2023/06/17 03:25:09;;;;;;;9.67;9.17;;;;;;;17.04;100.00;92142.72;5069302;28;20244;-73
2023/06/17 03:27:35;;;;;;;9.63;9.13;;;;;;;17.41;100.00;92168.00;5070414;28;20204;-73
2023/06/17 03:30:01;;;;;;;9.43;8.93;;;;;;;16.75;100.00;92154.19;5069840;28;20229;-74
2023/06/17 03:32:26;;;;;;;9.67;9.27;;;;;;;16.86;100.00;92168.50;5070091;28;20239;-72
2023/06/17 03:34:52;;;;;;;10.33;9.73;;;;;;;16.74;100.00;92176.41;5069232;28;20229;-74
2023/06/17 03:37:19;;;;;;;10.00;9.50;;;;;;;16.72;100.00;92133.00;5070339;28;20173;-73
2023/06/17 03:39:45;;;;;;;9.93;9.40;;;;;;;16.81;100.00;92176.63;5069866;28;20225;-74
2023/06/17 03:42:10;;;;;;;9.20;8.80;;;;;;;16.91;100.00;92160.41;5069827;28;20208;-74
2023/06/17 03:44:35;;;;;;;9.80;9.40;;;;;;;17.23;100.00;92171.97;5075148;28;20228;-73
2023/06/17 03:47:02;;;;;;;9.63;9.13;;;;;;;17.10;100.00;92180.97;5070070;28;20188;-73
2023/06/17 03:49:27;;;;;;;8.93;8.53;;;;;;;17.23;100.00;92178.00;5069424;28;20221;-74
2023/06/17 03:51:53;;;;;;;9.90;9.43;;;;;;;16.73;100.00;92164.28;5069713;28;20224;-73
2023/06/17 03:54:18;;;;;;;9.03;8.63;;;;;;;17.10;100.00;92186.25;5068951;28;20288;-74
2023/06/17 03:56:44;;;;;;;10.23;9.73;;;;;;;16.67;100.00;92191.97;5069707;28;20205;-73
2023/06/17 03:59:10;;;;;;;10.10;9.60;;;;;;;16.74;100.00;92196.72;5058279;28;20187;-74
2023/06/17 04:01:36;;;;;;;9.80;9.20;;;;;;;16.49;100.00;92198.50;5067316;28;20186;-74
2023/06/17 04:04:01;;;;;;;9.83;9.33;;;;;;;16.47;100.00;92198.03;5070843;28;20207;-75
2023/06/17 04:06:27;;;;;;;9.80;9.30;;;;;;;16.82;100.00;92183.47;5051718;28;20255;-73
2023/06/17 04:08:53;;;;;;;9.93;9.40;;;;;;;16.90;100.00;92203.66;5069723;28;20185;-74
2023/06/17 04:11:19;;;;;;;9.97;9.47;;;;;;;16.71;100.00;92192.88;5068275;28;20229;-73
2023/06/17 04:13:44;;;;;;;9.23;8.83;;;;;;;17.17;100.00;92215.47;5069386;28;20185;-73
2023/06/17 04:16:10;;;;;;;10.17;9.30;;;;;;;17.06;100.00;92215.13;5060915;28;20230;-72
2023/06/17 04:18:35;;;;;;;9.03;8.63;;;;;;;16.95;100.00;92176.34;5039022;28;20231;-72
2023/06/17 04:21:01;;;;;;;9.63;9.23;;;;;;;17.32;100.00;92212.97;5062200;28;20229;-72
2023/06/17 04:23:27;;;;;;;9.50;9.10;;;;;;;17.39;100.00;92201.88;5042687;28;20185;-73
2023/06/17 04:25:52;;;;;;;9.47;9.07;;;;;;;17.50;100.00;92209.06;5076035;28;20307;-73
2023/06/17 04:28:17;;;;;;;9.03;8.63;;;;;;;17.18;100.00;92212.50;5080060;28;20245;-75
2023/06/17 04:30:45;;;;;;;9.60;9.20;;;;;;;17.43;100.00;92218.59;5064477;28;20221;-72
2023/06/17 04:33:14;;;;;;;8.33;8.03;;;;;;;17.58;100.00;92216.09;5054434;28;20193;-71
2023/06/17 04:35:42;;;;;;;9.20;8.80;;;;;;;17.34;100.00;92212.63;5059872;28;20225;-73
2023/06/17 04:38:11;;;;;;;9.50;9.00;;;;;;;17.51;100.00;92220.38;5053542;28;20252;-70
2023/06/17 04:40:37;;;;;;;9.60;9.10;;;;;;;17.49;100.00;92222.59;5054081;28;20233;-71
2023/06/17 04:43:03;;;;;;;9.80;9.20;;;;;;;17.58;100.00;92226.66;5060905;28;20216;-70
2023/06/17 04:45:30;;;;;;;10.13;9.73;;;;;;;17.19;100.00;92202.72;5067825;28;20224;-75
2023/06/17 04:47:56;;;;;;;9.97;9.50;;;;;;;17.38;100.00;92216.94;5057271;28;20197;-73
2023/06/17 04:50:23;;;;;;;12.37;11.57;;;;;;;17.48;100.00;92221.81;5083087;28;20236;-74
2023/06/17 04:52:51;;;;;;;9.77;9.37;;;;;;;17.41;100.00;92220.78;5065650;28;20185;-74
2023/06/17 04:55:18;;;;;;;10.37;9.87;;;;;;;17.15;100.00;92223.72;5062387;28;20766;-73
2023/06/17 04:57:44;;;;;;;9.57;9.17;;;;;;;17.50;100.00;92222.25;5068079;28;20257;-70
2023/06/17 05:00:12;;;;;;;9.90;9.33;;;;;;;17.57;100.00;92219.81;5064452;28;20225;-70
2023/06/17 05:02:38;;;;;;;9.67;9.27;;;;;;;17.53;100.00;92224.25;5052903;28;20193;-71
2023/06/17 05:05:07;;;;;;;10.37;9.87;;;;;;;17.38;100.00;92201.13;5055414;28;20278;-72
2023/06/17 05:07:33;;;;;;;10.03;9.33;;;;;;;17.54;100.00;92220.50;5054244;28;20213;-71
2023/06/17 05:09:58;;;;;;;10.80;9.97;;;;;;;17.52;100.00;92227.22;5060650;28;20237;-73
2023/06/17 05:12:24;;;;;;;10.47;9.97;;;;;;;17.38;100.00;92227.50;5059439;28;20217;-70
2023/06/17 05:14:49;;;;;;;9.60;9.20;;;;;;;17.19;100.00;92219.34;5055319;28;20229;-69
2023/06/17 05:17:15;;;;;;;9.63;9.13;;;;;;;17.03;100.00;92231.63;5064577;28;20210;-72
2023/06/17 05:19:40;;;;;;;9.53;9.13;;;;;;;16.94;100.00;92223.03;5061992;28;20247;-71
2023/06/17 05:22:06;;;;;;;9.60;9.10;;;;;;;17.26;100.00;92240.66;5066443;28;20190;-71
2023/06/17 05:24:31;;;;;;;9.23;8.80;;;;;;;16.99;100.00;92229.97;5064264;28;20244;-71
2023/06/17 05:26:56;;;;;;;9.57;9.17;;;;;;;17.18;100.00;92233.63;5066517;28;20199;-70
2023/06/17 05:29:22;;;;;;;9.07;8.60;;;;;;;17.38;100.00;92232.00;5044855;28;20301;-71
2023/06/17 05:31:47;;;;;;;8.77;8.33;;;;;;;17.30;100.00;92225.72;5061381;28;20227;-71
2023/06/17 05:34:13;;;;;;;9.80;9.30;;;;;;;17.35;100.00;92243.97;5056086;28;20190;-74
2023/06/17 05:36:38;;;;;;;9.33;8.93;;;;;;;17.12;100.00;92237.56;5067563;28;20245;-71
2023/06/17 05:39:04;;;;;;;9.57;9.07;;;;;;;16.80;100.00;92234.94;5044614;28;20188;-71
2023/06/17 05:41:29;;;;;;;9.80;9.30;;;;;;;16.68;100.00;92240.97;5065642;28;20189;-74
2023/06/17 05:43:54;;;;;;;9.30;8.90;;;;;;;16.58;100.00;92232.66;5064912;28;20186;-71
2023/06/17 05:46:20;;;;;;;9.27;8.77;;;;;;;16.74;100.00;92231.75;5066253;28;21090;-72
2023/06/17 05:48:45;;;;;;;9.43;8.93;;;;;;;16.90;100.00;92232.66;5055009;28;20194;-70
2023/06/17 05:51:11;;;;;;;10.00;9.30;;;;;;;16.99;100.00;92230.75;5064814;28;20710;-71
2023/06/17 05:53:36;;;;;;;9.50;9.00;;;;;;;16.90;100.00;92240.56;5079325;28;20189;-70
2023/06/17 05:56:01;;;;;;;10.30;9.80;;;;;;;16.79;100.00;92239.47;5065663;28;20233;-71
2023/06/17 05:58:27;;;;;;;8.93;8.63;;;;;;;16.39;100.00;92238.38;5066525;28;20220;-70
2023/06/17 06:00:52;;;;;;;9.50;9.07;;;;;;;16.79;100.00;92234.19;5063513;28;20221;-71
2023/06/17 06:03:17;;;;;;;8.80;8.40;;;;;;;16.97;100.00;92226.88;5063614;28;20258;-70
2023/06/17 06:05:43;;;;;;;8.40;8.00;;;;;;;16.69;100.00;92225.91;5068282;28;20233;-71
2023/06/17 06:08:08;;;;;;;8.13;7.73;;;;;;;17.02;100.00;92229.31;5068469;28;20190;-72
2023/06/17 06:10:34;;;;;;;8.10;7.73;;;;;;;17.05;100.00;92197.00;5067966;28;20224;-71
2023/06/17 06:12:59;;;;;;;8.67;8.27;;;;;;;17.34;100.00;92237.16;5065778;28;20178;-71
2023/06/17 06:15:25;;;;;;;7.40;6.97;;;;;;;17.14;100.00;92239.88;5066731;28;20259;-68
2023/06/17 06:17:51;;;;;;;8.50;8.20;;;;;;;17.23;100.00;92235.28;5070080;28;20261;-71
2023/06/17 06:20:17;;;;;;;7.70;7.40;;;;;;;17.03;100.00;92226.34;5068780;28;20247;-70
2023/06/17 06:22:43;;;;;;;9.17;8.77;;;;;;;17.34;100.00;92250.34;5062322;28;20201;-70
2023/06/17 06:25:08;;;;;;;8.87;8.47;;;;;;;17.48;100.00;92256.13;5063462;28;20251;-68
2023/06/17 06:27:34;;;;;;;8.10;7.80;;;;;;;17.60;100.00;92256.13;5057753;28;20200;-70
2023/06/17 06:29:59;;;;;;;8.23;7.93;;;;;;;17.43;100.00;92245.75;5053037;28;20225;-69
2023/06/17 06:32:25;;;;;;;9.17;8.67;;;;;;;17.29;100.00;92255.84;5054516;28;20308;-70
2023/06/17 06:34:50;;;;;;;8.70;8.40;;;;;;;17.52;100.00;92270.22;5060374;28;21307;-71
2023/06/17 06:37:15;;;;;;;9.13;8.73;;;;;;;17.10;100.00;92237.13;5066052;28;20739;-69
2023/06/17 06:39:42;;;;;;;8.83;8.53;;;;;;;17.29;100.00;92255.84;5061659;28;20232;-69
2023/06/17 06:42:08;;;;;;;8.80;8.20;;;;;;;17.48;100.00;92276.47;5063376;28;20192;-67
2023/06/17 06:44:34;;;;;;;8.70;8.40;;;;;;;17.74;100.00;92263.75;5057428;28;20309;-67
2023/06/17 06:46:59;;;;;;;8.47;8.17;;;;;;;18.16;100.00;92267.69;5061546;28;20190;-67
2023/06/17 06:49:25;;;;;;;8.93;8.63;;;;;;;18.17;100.00;92269.22;5060096;28;20271;-67
2023/06/17 06:51:50;;;;;;;8.93;8.53;;;;;;;18.05;100.00;92269.22;5065397;28;20224;-67
2023/06/17 06:54:15;;;;;;;8.73;8.43;;;;;;;18.39;100.00;92260.84;5054063;28;20181;-67
2023/06/17 06:56:41;;;;;;;9.13;8.63;;;;;;;18.24;100.00;92269.41;5064363;28;20228;-67
2023/06/17 06:59:06;;;;;;;8.70;8.40;;;;;;;18.47;100.00;92265.22;5063842;28;20225;-67
2023/06/17 07:01:32;;;;;;;9.43;8.83;;;;;;;18.12;100.00;92244.88;5068803;28;20209;-67
2023/06/17 07:03:58;;;;;;;9.63;9.13;;;;;;;18.13;100.00;92255.13;5068874;28;20209;-67
2023/06/17 07:06:23;;;;;;;10.10;9.50;;;;;;;18.15;100.00;92255.56;5069261;28;20225;-67
2023/06/17 07:08:49;;;;;;;9.33;8.93;;;;;;;17.78;100.00;92235.56;5063829;28;20204;-71
2023/06/17 07:11:14;;;;;;;9.73;9.23;;;;;;;17.65;100.00;92252.50;5071989;28;20257;-67
2023/06/17 07:13:41;;;;;;;8.50;8.20;;;;;;;17.90;100.00;92255.91;5039763;28;20194;-67
2023/06/17 07:16:06;;;;;;;9.77;9.37;;;;;;;18.27;100.00;92252.88;5043055;28;20248;-68
2023/06/17 07:18:31;;;;;;;9.43;9.03;;;;;;;17.82;100.00;92251.53;5038112;28;20186;-68
2023/06/17 07:20:57;;;;;;;9.30;8.83;;;;;;;17.68;100.00;92259.78;5045958;28;20730;-67
2023/06/17 07:23:26;;;;;;;8.73;8.40;;;;;;;17.63;100.00;92259.22;5043215;28;20751;-68
2023/06/17 07:25:51;;;;;;;8.80;8.40;;;;;;;18.26;100.00;92258.50;5043697;28;20242;-66
2023/06/17 07:28:17;;;;;;;8.97;8.57;;;;;;;17.66;100.00;92258.56;5045437;28;20181;-69
2023/06/17 07:30:42;;;;;;;8.83;8.40;;;;;;;17.01;100.00;92259.41;5044736;28;20285;-65
2023/06/17 07:33:08;;;;;;;9.33;8.93;;;;;;;17.67;100.00;92260.84;5049905;28;20185;-65
2023/06/17 07:35:33;;;;;;;9.07;8.67;;;;;;;18.25;100.00;92270.19;5049270;28;20242;-67
2023/06/17 07:37:58;;;;;;;9.27;8.73;;;;;;;18.47;100.00;92264.44;5049864;28;20385;-71
2023/06/17 07:40:24;;;;;;;9.93;9.53;;;;;;;19.08;99.54;92279.00;5047264;28;20229;-70
2023/06/17 07:42:49;;;;;;;8.27;7.97;;;;;;;19.15;98.69;92281.81;5045750;28;20193;-71
2023/06/17 07:45:15;;;;;;;9.00;8.60;;;;;;;17.85;100.00;92272.75;5041106;28;20241;-70
2023/06/17 07:47:40;;;;;;;8.30;8.00;;;;;;;18.58;100.00;92281.38;5041970;28;20182;-71
2023/06/17 07:50:08;;;;;;;9.30;8.90;;;;;;;18.82;98.83;92279.41;5048156;28;20231;-70
2023/06/17 07:52:35;;;;;;;9.33;8.83;;;;;;;18.27;100.00;92283.84;5034233;28;20221;-71
2023/06/17 07:55:04;;;;;;;10.50;9.70;;;;;;;18.43;100.00;92282.06;5031057;28;20265;-70
2023/06/17 07:57:30;;;;;;;8.67;8.27;;;;;;;17.91;100.00;92283.88;5041812;28;20233;-71
2023/06/17 07:59:55;;;;;;;10.03;9.33;;;;;;;18.66;100.00;92280.47;5045220;28;20229;-71
2023/06/17 08:02:21;;;;;;;9.33;8.93;;;;;;;18.93;100.00;92287.66;5041029;28;20193;-70
2023/06/17 08:04:47;;;;;;;9.20;8.80;;;;;;;18.97;99.20;92291.16;5043707;28;20230;-74
2023/06/17 08:07:13;;;;;;;9.30;8.90;;;;;;;18.86;100.00;92293.50;5035486;28;20175;-73
2023/06/17 08:09:38;;;;;;;9.40;8.73;;;;;;;18.14;100.00;92259.31;5035425;28;20237;-73
2023/06/17 08:12:04;;;;;;;8.23;7.93;;;;;;;18.69;99.87;92285.09;5067445;28;20278;-74
2023/06/17 08:14:30;;;;;;;9.60;9.10;;;;;;;18.44;100.00;92291.56;5062503;28;20226;-74
2023/06/17 08:16:55;;;;;;;8.57;8.27;;;;;;;18.60;100.00;92287.13;5081319;28;20212;-75
2023/06/17 08:19:21;;;;;;;9.03;8.63;;;;;;;18.84;98.87;92303.66;5059504;28;20240;-72
2023/06/17 08:21:47;;;;;;;8.90;8.60;;;;;;;18.79;99.76;92305.75;5066996;28;20182;-73
2023/06/17 08:24:16;;;;;;;8.20;7.90;;;;;;;18.45;100.00;92290.44;5079555;28;20182;-73
2023/06/17 08:26:43;;;;;;;9.90;9.50;;;;;;;18.57;100.00;92290.41;5061055;28;20205;-74
2023/06/17 08:29:10;;;;;;;9.27;8.77;;;;;;;18.58;100.00;92292.72;5066514;28;20244;-73
2023/06/17 08:31:36;;;;;;;8.73;8.33;;;;;;;18.66;100.00;92281.22;5062611;28;20284;-73
2023/06/17 08:34:01;;;;;;;9.50;9.10;;;;;;;18.20;100.00;92300.25;5055783;28;20955;-73
2023/06/17 08:36:26;;;;;;;9.10;8.70;;;;;;;18.78;100.00;92285.72;5071895;28;20190;-74
2023/06/17 08:38:52;;;;;;;9.27;8.87;;;;;;;18.57;100.00;92298.34;5071741;28;20349;-77
2023/06/17 08:41:17;;;;;;;12.00;11.50;;;;;;;19.14;100.00;92315.44;5068934;28;20229;-73
2023/06/17 08:43:46;;;;;;;10.87;10.40;;;;;;;18.74;100.00;92292.81;5069640;28;20185;-71
2023/06/17 08:46:13;;;;;;;9.33;8.83;;;;;;;19.09;100.00;92304.34;5068772;28;20248;-76
2023/06/17 08:48:41;;;;;;;10.67;10.27;;;;;;;18.68;100.00;92294.13;5069599;28;20185;-78
2023/06/17 08:51:07;;;;;;;10.33;9.83;;;;;;;18.41;100.00;92244.63;5068223;28;20221;-78
2023/06/17 08:53:34;;;;;;;9.37;9.07;;;;;;;18.89;100.00;92278.84;5069476;28;20209;-77
2023/06/17 08:56:00;;;;;;;8.87;8.47;;;;;;;18.58;100.00;92265.50;5068902;28;20273;-77
2023/06/17 08:58:25;;;;;;;9.43;9.03;;;;;;;18.43;100.00;92276.78;5069221;28;20182;-76
2023/06/17 09:00:51;;;;;;;9.63;9.13;;;;;;;17.81;100.00;92239.41;5068708;28;20247;-77
2023/06/17 09:03:21;;;;;;;9.73;9.33;;;;;;;18.48;100.00;92285.25;5071131;28;20209;-77
2023/06/17 09:05:47;;;;;;;9.43;9.03;;;;;;;18.83;100.00;92280.94;5067843;28;20242;-78
2023/06/17 09:08:12;;;;;;;9.47;8.97;;;;;;;19.48;98.44;92290.28;5068086;28;20193;-77
2023/06/17 09:10:43;;;;;;;10.10;9.60;;;;;;;18.90;100.00;92301.53;5063658;28;20237;-77
2023/06/17 09:13:08;;;;;;;10.30;9.80;;;;;;;18.96;100.00;92302.84;5072188;28;20170;-78
2023/06/17 09:15:39;;;;;;;9.03;8.63;;;;;;;19.00;99.52;92301.81;5071526;28;20223;-76
2023/06/17 09:18:04;;;;;;;9.77;9.27;;;;;;;18.41;100.00;92240.09;5072095;28;20181;-77
2023/06/17 09:20:32;;;;;;;9.50;9.00;;;;;;;19.51;99.66;92279.00;5071927;28;20244;-77
2023/06/17 09:22:57;;;;;;;9.00;8.60;;;;;;;19.89;96.98;92300.38;5071977;28;20197;-76
2023/06/17 09:25:23;;;;;;;9.77;8.87;;;;;;;19.96;96.10;92287.28;5056456;28;20274;-78
2023/06/17 09:27:50;;;;;;;8.80;8.40;;;;;;;20.12;94.65;92297.88;5072114;28;20193;-77
2023/06/17 09:30:16;;;;;;;9.27;8.77;;;;;;;19.36;97.83;92303.59;5071779;28;20229;-77
2023/06/17 09:32:43;;;;;;;8.67;8.07;;;;;;;20.01;96.88;92296.88;5072081;28;20219;-77
2023/06/17 09:35:15;;;;;;;9.53;9.03;;;;;;;18.96;98.20;92273.75;5071725;28;20228;-78
2023/06/17 09:37:48;;;;;;;10.27;9.77;;;;;;;19.05;100.00;92287.63;5082959;28;20179;-78
2023/06/17 09:40:13;;;;;;;9.23;8.83;;;;;;;19.30;100.00;92289.03;5088026;28;20229;-77
2023/06/17 09:42:39;;;;;;;10.50;10.00;;;;;;;17.96;100.00;92193.84;5057194;28;20178;-78
2023/06/17 09:45:12;;;;;;;9.20;8.80;;;;;;;19.31;100.00;92290.59;5072037;28;20290;-77
2023/06/17 09:47:38;;;;;;;9.47;9.07;;;;;;;19.05;100.00;92277.03;5072071;28;21672;-77
2023/06/17 09:50:08;;;;;;;10.17;9.67;;;;;;;18.92;100.00;92263.09;5071520;28;20865;-78
2023/06/17 09:52:36;;;;;;;9.30;8.90;;;;;;;19.30;98.65;92307.56;5069901;28;20210;-77
2023/06/17 09:55:06;;;;;;;8.83;8.43;;;;;;;18.54;99.59;92232.91;5071585;28;20241;-78
2023/06/17 09:57:31;;;;;;;8.63;8.33;;;;;;;19.12;98.67;92295.72;5072146;28;20172;-79
2023/06/17 10:00:14;;;;;;;8.53;8.13;;;;;;;19.61;97.84;92315.56;5071880;28;20223;-77
2023/06/17 10:02:40;;;;;;;8.63;8.33;;;;;;;19.58;95.97;92321.53;5064167;28;20238;-79
2023/06/17 10:05:07;;;;;;;9.50;9.00;;;;;;;19.15;96.91;92324.94;5074438;28;20214;-78
2023/06/17 10:07:34;;;;;;;8.17;7.87;;;;;;;19.26;97.60;92301.41;5088146;28;20185;-78
2023/06/17 10:10:00;;;;;;;9.60;9.10;;;;;;;18.97;98.35;92272.66;5071330;28;20226;-78
2023/06/17 10:12:29;;;;;;;7.93;7.63;;;;;;;19.12;97.33;92308.97;5071753;28;20274;-79
2023/06/17 10:14:55;;;;;;;9.60;9.20;;;;;;;18.98;97.31;92300.63;5084796;28;20314;-78
2023/06/17 10:17:22;;;;;;;9.17;8.77;;;;;;;19.28;96.14;92253.44;5071678;28;20196;-77
2023/06/17 10:19:49;;;;;;;9.23;8.83;;;;;;;19.08;96.33;92271.06;5070902;28;20255;-77
2023/06/17 10:22:19;;;;;;;8.20;7.90;;;;;;;20.05;95.76;92326.84;5064925;28;20206;-78
2023/06/17 10:24:46;;;;;;;8.80;8.40;;;;;;;19.42;98.66;92326.06;5069752;28;20230;-78
2023/06/17 10:27:12;;;;;;;9.03;8.73;;;;;;;19.18;96.83;92297.00;5071482;28;20290;-78
2023/06/17 10:29:42;;;;;;;8.97;8.60;;;;;;;19.14;95.66;92294.28;5083638;28;20219;-78
2023/06/17 10:32:22;;;;;;;10.00;9.47;;;;;;;18.32;99.54;92318.72;5071414;28;20211;-78
2023/06/17 10:35:08;;;;;;;9.10;8.53;;;;;;;18.46;100.00;92335.03;5069866;28;20316;-79
2023/06/17 10:37:45;;;;;;;8.93;8.60;;;;;;;18.98;98.78;92341.09;5083084;28;20178;-79
2023/06/17 10:40:22;;;;;;;7.93;7.63;;;;;;;18.91;98.28;92340.88;5091929;28;20259;-77
2023/06/17 10:43:01;;;;;;;8.63;8.33;;;;;;;18.55;99.65;92332.28;5071259;28;20235;-79
2023/06/17 10:45:54;;;;;;;9.00;8.60;;;;;;;18.59;100.00;92341.09;5070857;28;21039;-79
2023/06/17 10:48:23;;;;;;;9.07;8.67;;;;;;;18.78;98.99;92344.69;5059919;28;20257;-79
2023/06/17 10:51:11;;;;;;;10.00;9.40;;;;;;;18.46;100.00;92321.06;5081676;28;20217;-78
2023/06/17 10:53:37;;;;;;;8.70;8.30;;;;;;;18.96;100.00;92332.72;5071434;28;20208;-78
2023/06/17 10:56:04;;;;;;;9.87;8.90;;;;;;;17.67;100.00;92291.75;5069757;28;20217;-78
2023/06/17 10:58:44;;;;;;;9.43;9.03;;;;;;;18.19;100.00;92334.94;5082465;28;20737;-77
2023/06/17 11:01:11;;;;;;;8.87;8.47;;;;;;;17.99;100.00;92278.47;5059148;28;20225;-78
2023/06/17 11:03:37;;;;;;;10.03;9.53;;;;;;;17.70;100.00;92320.19;5078433;28;20270;-78
2023/06/17 11:06:05;;;;;;;9.60;9.10;;;;;;;18.49;100.00;92349.47;5070428;28;20225;-78
2023/06/17 11:08:32;;;;;;;9.23;8.83;;;;;;;18.88;100.00;92343.44;5070898;28;20186;-77
2023/06/17 11:11:12;;;;;;;8.87;8.47;;;;;;;18.71;100.00;92341.81;5085697;28;20253;-78
2023/06/17 11:13:43;;;;;;;8.73;8.33;;;;;;;18.08;100.00;92265.91;5070533;28;20245;-78
2023/06/17 11:16:10;;;;;;;9.60;9.10;;;;;;;18.10;100.00;92310.50;5070455;28;20205;-77
2023/06/17 11:18:41;;;;;;;9.23;8.83;;;;;;;18.08;100.00;92344.41;5070275;28;20185;-78
2023/06/17 11:21:08;;;;;;;9.17;8.30;;;;;;;18.41;100.00;92323.94;5070049;28;20526;-77
2023/06/17 11:23:35;;;;;;;8.70;8.33;;;;;;;18.60;100.00;92334.72;5065531;28;20200;-78
2023/06/17 11:26:01;;;;;;;9.43;9.03;;;;;;;18.18;100.00;92354.53;5052110;28;20210;-77